createdAt,value
2019-01-25T00:01:06.865Z,57.57
2019-01-25T00:03:36.652Z,64.47
2019-01-25T00:06:07.103Z,66.30
2019-01-25T00:08:36.699Z,66.43
2019-01-25T00:11:06.535Z,59.57
2019-01-25T00:13:36.199Z,53.70
2019-01-25T00:16:07.255Z,53.60
2019-01-25T00:18:36.859Z,53.60
2019-01-25T00:21:06.819Z,58.57
2019-01-25T00:23:36.419Z,52.00
2019-01-25T00:26:07.614Z,61.10
2019-01-25T00:28:37.180Z,56.50
2019-01-25T00:31:06.769Z,53.23
2019-01-25T00:33:36.308Z,56.40
2019-01-25T00:36:06.666Z,58.13
2019-01-25T00:38:36.191Z,58.30
2019-01-25T00:41:06.090Z,54.60
2019-01-25T00:43:35.867Z,52.97
2019-01-25T00:46:05.559Z,58.67
2019-01-25T00:48:35.166Z,51.57
2019-01-25T00:51:05.053Z,52.63
2019-01-25T00:53:34.597Z,47.80
2019-01-25T00:56:04.584Z,51.90
2019-01-25T00:58:34.115Z,56.20
2019-01-25T01:01:04.061Z,50.87
2019-01-25T01:03:33.600Z,54.03
2019-01-25T01:06:03.122Z,57.93
2019-01-25T01:08:32.658Z,65.70
2019-01-25T01:11:02.184Z,53.27
2019-01-25T01:13:31.724Z,55.63
2019-01-25T01:16:01.560Z,54.47
2019-01-25T01:18:31.133Z,52.37
2019-01-25T01:21:00.714Z,62.03
2019-01-25T01:23:30.270Z,53.37
2019-01-25T01:25:59.791Z,50.60
2019-01-25T01:28:29.330Z,59.10
2019-01-25T01:30:58.851Z,41.03
2019-01-25T01:33:28.393Z,55.80
2019-01-25T01:35:57.909Z,53.50
2019-01-25T01:38:27.513Z,50.27
2019-01-25T01:40:57.048Z,55.53
2019-01-25T01:43:26.594Z,49.50
2019-01-25T01:45:56.116Z,51.07
2019-01-25T01:48:25.653Z,51.43
2019-01-25T01:50:55.172Z,50.63
2019-01-25T01:53:24.696Z,54.40
2019-01-25T01:55:54.245Z,47.37
2019-01-25T01:58:23.763Z,51.27
2019-01-25T02:00:53.324Z,54.60
2019-01-25T02:03:22.857Z,53.37
2019-01-25T02:05:52.794Z,55.30
2019-01-25T02:08:22.324Z,48.03
2019-01-25T02:10:51.940Z,48.43
2019-01-25T02:13:21.548Z,52.57
2019-01-25T02:15:51.158Z,52.87
2019-01-25T02:18:20.683Z,50.37
2019-01-25T02:20:50.223Z,51.60
2019-01-25T02:23:19.748Z,54.50
2019-01-25T02:25:49.301Z,60.67
2019-01-25T02:28:18.816Z,56.93
2019-01-25T02:30:48.365Z,51.57
2019-01-25T02:33:17.884Z,53.47
2019-01-25T02:35:47.595Z,50.77
2019-01-25T02:38:17.125Z,59.33
2019-01-25T02:40:46.737Z,54.13
2019-01-25T02:43:16.259Z,49.83
2019-01-25T02:45:46.046Z,48.90
2019-01-25T02:48:15.833Z,49.30
2019-01-25T02:50:45.369Z,57.00
2019-01-25T02:53:14.883Z,58.93
2019-01-25T02:55:44.422Z,57.00
2019-01-25T02:58:14.054Z,43.00
2019-01-25T03:00:43.641Z,51.60
2019-01-25T03:03:13.263Z,53.27
2019-01-25T03:05:42.848Z,51.17
2019-01-25T03:08:12.404Z,56.70
2019-01-25T03:10:47.087Z,47.63
2019-01-25T03:13:13.252Z,54.37
2019-01-25T03:15:42.809Z,49.03
2019-01-25T03:18:12.454Z,51.20
2019-01-25T03:20:42.007Z,46.67
2019-01-25T03:23:11.586Z,49.37
2019-01-25T03:25:41.214Z,45.97
2019-01-25T03:28:11.155Z,42.07
2019-01-25T03:30:40.790Z,45.73
2019-01-25T03:33:10.445Z,51.90
2019-01-25T03:35:40.068Z,45.80
2019-01-25T03:38:09.648Z,51.67
2019-01-25T03:40:39.267Z,49.73
2019-01-25T03:43:08.855Z,51.90
2019-01-25T03:45:38.410Z,57.13
2019-01-25T03:48:08.126Z,43.90
2019-01-25T03:50:37.676Z,46.77
2019-01-25T03:53:07.247Z,43.77
2019-01-25T03:55:36.800Z,46.40
2019-01-25T03:58:06.515Z,48.80
2019-01-25T04:00:36.136Z,51.63
2019-01-25T04:03:05.946Z,52.93
2019-01-25T04:05:35.512Z,48.40
2019-01-25T04:08:05.989Z,60.03
2019-01-25T04:10:35.689Z,51.43
2019-01-25T04:13:05.501Z,50.37
2019-01-25T04:15:35.468Z,57.63
2019-01-25T04:18:05.584Z,56.03
2019-01-25T04:20:35.206Z,55.53
2019-01-25T04:23:05.093Z,58.10
2019-01-25T04:25:34.719Z,50.93
2019-01-25T04:28:04.469Z,56.30
2019-01-25T04:30:34.039Z,54.97
2019-01-25T04:33:03.685Z,58.40
2019-01-25T04:35:33.235Z,52.60
2019-01-25T04:38:02.803Z,58.40
2019-01-25T04:40:32.366Z,57.50
2019-01-25T04:43:02.033Z,58.57
2019-01-25T04:45:31.632Z,59.47
2019-01-25T04:48:01.214Z,64.27
2019-01-25T04:50:30.845Z,59.67
2019-01-25T04:53:00.401Z,55.20
2019-01-25T04:55:32.661Z,57.03
2019-01-25T04:58:14.666Z,61.23
2019-01-25T05:00:44.437Z,58.17
2019-01-25T05:03:14.493Z,63.40
2019-01-25T05:05:44.315Z,60.70
2019-01-25T05:08:18.759Z,68.23
2019-01-25T05:10:48.582Z,65.40
2019-01-25T05:13:18.311Z,69.00
2019-01-25T05:15:48.051Z,56.40
2019-01-25T05:18:17.620Z,56.03
2019-01-25T05:20:47.273Z,67.17
2019-01-25T05:23:16.837Z,65.43
2019-01-25T05:25:46.559Z,54.67
2019-01-25T05:28:18.024Z,59.40
2019-01-25T05:30:57.275Z,60.60
2019-01-25T05:33:26.818Z,64.57
2019-01-25T05:35:56.537Z,67.93
2019-01-25T05:38:26.091Z,65.33
2019-01-25T05:40:55.677Z,69.60
2019-01-25T05:43:25.236Z,55.17
2019-01-25T05:45:54.811Z,63.80
2019-01-25T05:48:29.075Z,72.43
2019-01-25T05:51:03.029Z,63.77
2019-01-25T05:53:32.645Z,68.57
2019-01-25T05:56:02.305Z,61.03
2019-01-25T05:58:31.880Z,65.60
2019-01-25T06:01:01.460Z,72.47
2019-01-25T06:03:31.076Z,67.43
2019-01-25T06:06:01.870Z,62.60
2019-01-25T06:08:32.184Z,61.37
2019-01-25T06:11:07.180Z,62.07
2019-01-25T06:13:37.079Z,63.07
2019-01-25T06:16:06.701Z,63.00
2019-01-25T06:18:36.359Z,69.17
2019-01-25T06:21:07.233Z,70.13
2019-01-25T06:23:36.861Z,62.07
2019-01-25T06:26:07.065Z,71.10
2019-01-25T06:28:36.693Z,73.57
2019-01-25T06:31:06.450Z,70.50
2019-01-25T06:33:36.147Z,63.13
2019-01-25T06:36:05.863Z,69.13
2019-01-25T06:38:35.431Z,74.93
2019-01-25T06:41:05.360Z,69.23
2019-01-25T06:43:34.906Z,83.90
2019-01-25T06:46:04.830Z,75.17
2019-01-25T06:48:34.462Z,73.13
2019-01-25T06:51:04.181Z,73.43
2019-01-25T06:53:33.767Z,77.00
2019-01-25T06:56:03.649Z,67.30
2019-01-25T06:58:37.635Z,67.70
2019-01-25T07:01:17.579Z,68.00
2019-01-25T07:03:47.156Z,72.10
2019-01-25T07:06:16.803Z,66.37
2019-01-25T07:08:48.050Z,66.60
2019-01-25T07:11:17.674Z,63.57
2019-01-25T07:13:47.249Z,72.40
2019-01-25T07:16:16.813Z,73.40
2019-01-25T07:18:46.389Z,64.73
2019-01-25T07:21:16.024Z,73.23
2019-01-25T07:23:45.625Z,82.97
2019-01-25T07:26:15.231Z,71.07
2019-01-25T07:28:44.842Z,72.63
2019-01-25T07:31:14.409Z,65.70
2019-01-25T07:33:43.990Z,68.93
2019-01-25T07:36:13.543Z,65.47
2019-01-25T07:38:43.126Z,64.77
2019-01-25T07:41:12.700Z,55.03
2019-01-25T07:43:42.261Z,55.40
2019-01-25T07:46:11.969Z,48.57
2019-01-25T07:48:41.600Z,56.07
2019-01-25T07:51:11.186Z,51.40
2019-01-25T07:53:40.760Z,48.57
2019-01-25T07:56:10.473Z,52.60
2019-01-25T07:58:40.034Z,50.97
2019-01-25T08:01:09.848Z,45.83
2019-01-25T08:03:39.484Z,52.47
2019-01-25T08:06:09.024Z,60.20
2019-01-25T08:08:38.580Z,56.43
2019-01-25T08:11:08.205Z,52.03
2019-01-25T08:13:37.781Z,45.67
2019-01-25T08:16:07.347Z,44.83
2019-01-25T08:18:36.929Z,50.67
2019-01-25T08:21:06.569Z,55.37
2019-01-25T08:23:36.157Z,52.50
2019-01-25T08:26:05.966Z,52.50
2019-01-25T08:28:35.514Z,53.40
2019-01-25T08:31:05.297Z,43.23
2019-01-25T08:33:34.838Z,50.43
2019-01-25T08:36:04.732Z,52.43
2019-01-25T08:38:34.333Z,63.90
2019-01-25T08:41:03.887Z,52.40
2019-01-25T08:43:33.432Z,59.77
2019-01-25T08:46:03.497Z,59.00
2019-01-25T08:48:33.102Z,66.67
2019-01-25T08:51:02.792Z,53.00
2019-01-25T08:53:32.824Z,53.83
2019-01-25T08:56:02.429Z,56.10
2019-01-25T08:58:31.979Z,57.33
2019-01-25T09:01:01.801Z,55.90
2019-01-25T09:03:31.350Z,54.83
2019-01-25T09:06:00.996Z,48.93
2019-01-25T09:08:30.721Z,54.87
2019-01-25T09:11:00.298Z,55.30
2019-01-25T09:13:29.849Z,51.10
2019-01-25T09:15:59.855Z,54.87
2019-01-25T09:18:29.414Z,51.73
2019-01-25T09:20:59.021Z,46.83
2019-01-25T09:23:28.668Z,52.90
2019-01-25T09:26:01.058Z,50.03
2019-01-25T09:28:29.497Z,48.80
2019-01-25T09:30:59.072Z,52.70
2019-01-25T09:33:28.628Z,53.30
2019-01-25T09:35:58.158Z,57.47
2019-01-25T09:38:27.801Z,54.80
2019-01-25T09:40:57.352Z,55.90
2019-01-25T09:43:26.909Z,57.67
2019-01-25T09:45:56.846Z,59.73
2019-01-25T09:48:26.385Z,58.47
2019-01-25T09:50:55.939Z,59.13
2019-01-25T09:53:25.714Z,53.83
2019-01-25T09:55:55.246Z,55.53
2019-01-25T09:58:25.080Z,60.30
2019-01-25T10:01:01.975Z,50.53
2019-01-25T10:03:31.781Z,50.23
2019-01-25T10:06:01.352Z,58.73
2019-01-25T10:08:31.131Z,53.90
2019-01-25T10:11:00.664Z,50.53
2019-01-25T10:13:30.220Z,55.10
2019-01-25T10:16:00.176Z,47.10
2019-01-25T10:18:29.789Z,61.07
2019-01-25T10:20:59.338Z,56.17
2019-01-25T10:23:29.257Z,50.37
2019-01-25T10:25:58.861Z,51.50
2019-01-25T10:28:28.402Z,50.00
2019-01-25T10:31:07.200Z,50.60
2019-01-25T10:33:43.768Z,52.67
2019-01-25T10:36:16.780Z,50.83
2019-01-25T10:39:02.241Z,49.20
2019-01-25T10:44:05.222Z,40.00
2019-01-25T10:46:39.667Z,56.70
2019-01-25T10:49:11.649Z,50.50
2019-01-25T10:52:03.250Z,47.53
2019-01-25T10:54:42.609Z,51.97
2019-01-25T10:57:17.249Z,47.00
2019-01-25T10:59:55.454Z,45.73
2019-01-25T11:02:25.100Z,51.77
2019-01-25T11:05:07.971Z,51.27
2019-01-25T11:11:29.760Z,41.20
2019-01-25T11:15:09.752Z,57.70
2019-01-25T11:16:58.401Z,52.73
2019-01-25T11:20:20.479Z,47.53
2019-01-25T11:23:04.567Z,48.83
2019-01-25T11:25:47.398Z,42.97
2019-01-25T11:28:32.057Z,44.87
2019-01-25T11:43:41.576Z,47.87
2019-01-25T11:47:07.670Z,45.97
2019-01-25T11:49:41.416Z,47.30
2019-01-25T11:52:28.936Z,45.10
2019-01-25T11:56:01.221Z,44.50
2019-01-25T11:58:34.255Z,43.33
2019-01-25T12:01:19.315Z,40.53
2019-01-25T12:04:00.584Z,45.27
2019-01-25T12:06:32.156Z,45.33
2019-01-25T12:09:52.346Z,44.07
2019-01-25T12:12:01.544Z,47.27
2019-01-25T12:14:36.406Z,47.83
2019-01-25T12:20:35.164Z,47.33
2019-01-25T12:24:18.894Z,50.33
2019-01-25T12:26:35.064Z,53.43
2019-01-25T12:29:14.312Z,58.30
2019-01-25T12:35:46.136Z,40.90
2019-01-25T12:37:54.676Z,49.27
2019-01-25T12:44:44.810Z,42.60
2019-01-25T12:47:06.839Z,45.97
2019-01-25T12:53:34.022Z,47.67
2019-01-25T12:56:21.655Z,39.43
2019-01-25T13:01:59.267Z,44.97
2019-01-25T13:07:31.966Z,48.67
2019-01-25T13:10:55.995Z,48.50
2019-01-25T13:16:47.591Z,45.00
2019-01-25T13:19:54.501Z,51.20
2019-01-25T13:22:45.075Z,47.50
2019-01-25T13:35:36.970Z,65.20
2019-01-25T13:41:38.919Z,54.23
2019-01-25T13:49:34.405Z,47.93
2019-01-25T13:52:19.895Z,52.50
2019-01-25T13:57:30.760Z,64.43
2019-01-25T14:00:08.472Z,57.47
2019-01-25T14:02:48.655Z,56.07
2019-01-25T14:07:57.568Z,61.07
2019-01-25T14:10:33.568Z,61.80
2019-01-25T14:13:03.218Z,63.33
2019-01-25T14:15:33.263Z,58.80
2019-01-25T14:18:02.964Z,56.47
2019-01-25T14:20:34.042Z,52.80
2019-01-25T14:23:03.746Z,74.77
2019-01-25T14:25:33.330Z,64.87
2019-01-25T14:28:02.910Z,66.20
2019-01-25T14:30:36.675Z,64.67
2019-01-25T14:33:07.252Z,62.80
2019-01-25T14:35:37.089Z,56.10
2019-01-25T14:38:07.444Z,53.60
2019-01-25T14:40:37.093Z,56.00
2019-01-25T14:43:06.720Z,74.13
2019-01-25T14:45:37.145Z,53.40
2019-01-25T14:48:08.264Z,55.80
2019-01-25T14:50:37.882Z,58.83
2019-01-25T14:53:07.974Z,61.80
2019-01-25T14:55:37.540Z,59.30
2019-01-25T14:58:07.365Z,55.13
2019-01-25T15:00:36.981Z,62.20
2019-01-25T15:03:06.798Z,53.47
2019-01-25T15:05:36.427Z,60.30
2019-01-25T15:08:06.453Z,58.03
2019-01-25T15:10:36.059Z,67.37
2019-01-25T15:13:07.049Z,62.40
2019-01-25T15:15:36.741Z,54.07
2019-01-25T15:18:06.662Z,65.50
2019-01-25T15:20:36.288Z,57.97
2019-01-25T15:23:06.206Z,66.73
2019-01-25T15:25:35.818Z,58.80
2019-01-25T15:28:05.654Z,63.97
2019-01-25T15:30:36.071Z,62.90
2019-01-25T15:35:36.074Z,64.07
2019-01-25T15:38:07.204Z,61.57
2019-01-25T15:40:36.835Z,61.83
2019-01-25T15:43:06.419Z,59.37
2019-01-25T15:45:36.257Z,57.23
2019-01-25T15:48:06.317Z,65.80
2019-01-25T15:50:35.949Z,59.23
2019-01-25T15:53:05.949Z,62.43
2019-01-25T15:55:36.686Z,61.83
2019-01-25T15:58:06.397Z,58.93
2019-01-25T16:00:36.343Z,66.33
2019-01-25T16:03:06.215Z,57.70
2019-01-25T16:05:35.857Z,62.97
2019-01-25T16:08:05.773Z,62.93
2019-01-25T16:10:35.397Z,59.20
2019-01-25T16:13:05.051Z,60.77
2019-01-25T16:15:34.637Z,54.57
2019-01-25T16:18:04.265Z,63.83
2019-01-25T16:20:33.895Z,59.63
2019-01-25T16:23:03.731Z,59.27
2019-01-25T16:25:34.190Z,60.40
2019-01-25T16:28:03.810Z,60.37
2019-01-25T16:30:53.090Z,59.60
2019-01-25T16:33:22.635Z,59.33
2019-01-25T16:35:52.192Z,62.70
2019-01-25T16:38:21.772Z,68.50
2019-01-25T16:40:51.334Z,61.00
2019-01-25T16:43:20.891Z,65.13
2019-01-25T16:45:50.475Z,64.47
2019-01-25T16:48:20.102Z,59.20
2019-01-25T16:50:49.735Z,66.63
2019-01-25T16:53:19.711Z,66.33
2019-01-25T16:55:49.338Z,58.17
2019-01-25T16:58:18.886Z,72.40
2019-01-25T17:00:48.476Z,64.90
2019-01-25T17:03:18.191Z,63.60
2019-01-25T17:05:47.754Z,62.10
2019-01-25T17:08:17.399Z,75.80
2019-01-25T17:10:47.135Z,69.93
2019-01-25T17:13:16.765Z,67.00
2019-01-25T17:15:46.364Z,85.73
2019-01-25T17:18:15.988Z,84.60
2019-01-25T17:20:45.548Z,69.33
2019-01-25T17:23:15.148Z,83.10
2019-01-25T17:25:44.707Z,72.83
2019-01-25T17:28:14.284Z,65.63
2019-01-25T17:30:43.875Z,67.83
2019-01-25T17:33:13.428Z,69.80
2019-01-25T17:35:43.061Z,63.97
2019-01-25T17:38:12.633Z,69.67
2019-01-25T17:40:46.729Z,69.03
2019-01-25T17:43:15.462Z,66.23
2019-01-25T17:45:45.122Z,68.93
2019-01-25T17:48:14.747Z,77.27
2019-01-25T17:50:44.440Z,81.23
2019-01-25T17:53:14.258Z,79.73
2019-01-25T17:55:43.821Z,90.17
2019-01-25T17:58:13.375Z,79.53
2019-01-25T18:00:45.271Z,74.13
2019-01-25T18:03:14.838Z,73.93
2019-01-25T18:05:44.410Z,73.83
2019-01-25T18:08:14.073Z,68.00
2019-01-25T18:10:43.723Z,63.73
2019-01-25T18:13:13.348Z,64.77
2019-01-25T18:15:42.940Z,65.67
2019-01-25T18:18:12.938Z,77.17
2019-01-25T18:20:42.637Z,75.03
2019-01-25T18:23:12.414Z,77.63
2019-01-25T18:25:46.457Z,72.20
2019-01-25T18:28:32.685Z,69.37
2019-01-25T18:31:12.141Z,72.30
2019-01-25T18:33:42.263Z,64.63
2019-01-25T18:36:11.868Z,69.60
2019-01-25T18:38:41.425Z,72.67
2019-01-25T18:41:11.246Z,73.97
2019-01-25T18:43:40.807Z,72.17
2019-01-25T18:46:10.430Z,70.90
2019-01-25T18:48:40.279Z,88.13
2019-01-25T18:51:09.918Z,77.83
2019-01-25T18:53:39.468Z,82.80
2019-01-25T18:56:10.143Z,85.30
2019-01-25T18:58:39.735Z,69.00
2019-01-25T19:01:09.297Z,72.93
2019-01-25T19:03:39.165Z,69.17
2019-01-25T19:06:08.804Z,73.80
2019-01-25T19:08:38.351Z,71.83
2019-01-25T19:11:08.295Z,72.67
2019-01-25T19:13:38.009Z,64.20
2019-01-25T19:16:07.565Z,73.33
2019-01-25T19:18:37.329Z,73.27
2019-01-25T19:21:07.120Z,72.47
2019-01-25T19:23:36.680Z,65.70
2019-01-25T19:26:06.443Z,80.60
2019-01-25T19:28:36.006Z,71.77
2019-01-25T19:31:05.807Z,71.93
2019-01-25T19:33:35.555Z,69.67
2019-01-25T19:36:05.516Z,65.90
2019-01-25T19:38:35.078Z,61.23
2019-01-25T19:41:05.025Z,74.50
2019-01-25T19:43:34.651Z,85.27
2019-01-25T19:46:04.721Z,65.30
2019-01-25T19:48:34.381Z,69.83
2019-01-25T19:51:04.071Z,72.60
2019-01-25T19:53:33.625Z,67.07
2019-01-25T19:56:03.467Z,58.60
2019-01-25T19:58:33.078Z,47.63
2019-01-25T20:01:02.682Z,45.80
2019-01-25T20:03:32.310Z,56.80
2019-01-25T20:06:01.935Z,44.13
2019-01-25T20:08:31.501Z,46.33
2019-01-25T20:11:01.093Z,40.57
2019-01-25T20:13:30.652Z,40.50
2019-01-25T20:16:01.118Z,46.67
2019-01-25T20:18:30.696Z,57.10
2019-01-25T20:21:00.261Z,43.33
2019-01-25T20:23:29.901Z,49.27
2019-01-25T20:25:59.494Z,52.77
2019-01-25T20:28:29.056Z,46.50
2019-01-25T20:30:58.639Z,47.10
2019-01-25T20:33:28.312Z,51.23
2019-01-25T20:35:57.873Z,52.63
2019-01-25T20:38:27.428Z,46.73
2019-01-25T20:40:57.012Z,45.90
2019-01-25T20:43:26.650Z,56.17
2019-01-25T20:45:56.302Z,52.13
2019-01-25T20:48:25.952Z,50.53
2019-01-25T20:50:55.580Z,47.77
2019-01-25T20:53:25.206Z,47.30
2019-01-25T20:55:54.787Z,56.10
2019-01-25T20:58:24.435Z,49.30
2019-01-25T21:00:54.007Z,42.40
2019-01-25T21:03:23.772Z,50.03
2019-01-25T21:05:53.405Z,46.70
2019-01-25T21:08:23.034Z,42.27
2019-01-25T21:10:52.837Z,43.03
2019-01-25T21:13:22.396Z,45.63
2019-01-25T21:15:52.049Z,47.90
2019-01-25T21:18:21.666Z,39.37
2019-01-25T21:20:51.290Z,43.23
2019-01-25T21:23:20.985Z,37.10
2019-01-25T21:25:50.715Z,43.30
2019-01-25T21:28:20.435Z,46.77
2019-01-25T21:30:50.189Z,42.63
2019-01-25T21:33:20.047Z,44.07
2019-01-25T21:35:49.594Z,41.73
2019-01-25T21:38:19.156Z,45.00
2019-01-25T21:40:48.833Z,39.77
2019-01-25T21:43:18.396Z,42.07
2019-01-25T21:45:48.115Z,37.60
2019-01-25T21:48:17.883Z,36.87
2019-01-25T21:50:47.438Z,42.67
2019-01-25T21:53:17.154Z,37.93
2019-01-25T21:55:46.883Z,37.53
2019-01-25T21:58:16.513Z,40.53
2019-01-25T22:00:46.217Z,44.03
2019-01-25T22:03:15.871Z,33.63
2019-01-25T22:05:45.434Z,41.60
2019-01-25T22:08:15.055Z,39.80
2019-01-25T22:10:45.132Z,39.00
2019-01-25T22:13:14.739Z,38.23
2019-01-25T22:15:50.787Z,49.17
2019-01-25T22:18:15.925Z,43.80
2019-01-25T22:20:45.536Z,45.00
2019-01-25T22:23:16.918Z,48.13
2019-01-25T22:25:46.691Z,40.47
2019-01-25T22:28:16.257Z,43.10
2019-01-25T22:30:56.261Z,38.83
2019-01-25T22:33:25.819Z,44.17
2019-01-25T22:35:55.401Z,44.10
2019-01-25T22:38:24.974Z,44.73
2019-01-25T22:40:54.523Z,42.00
2019-01-25T22:43:24.085Z,44.43
2019-01-25T22:45:58.600Z,41.97
2019-01-25T22:48:24.963Z,41.50
2019-01-25T22:50:54.521Z,40.20
2019-01-25T22:53:24.581Z,47.73
2019-01-25T22:55:54.208Z,42.00
2019-01-25T22:58:23.762Z,42.10
2019-01-25T23:01:09.785Z,43.27
2019-01-25T23:03:52.734Z,47.03
2019-01-25T23:06:32.724Z,48.40
2019-01-25T23:09:16.162Z,40.33
2019-01-25T23:11:46.001Z,39.70
2019-01-25T23:14:15.556Z,40.63
2019-01-25T23:16:45.262Z,53.00
2019-01-25T23:19:14.924Z,42.83
2019-01-25T23:21:44.474Z,53.93
2019-01-25T23:24:14.040Z,44.90
2019-01-25T23:26:43.771Z,50.53
2019-01-25T23:29:13.407Z,55.23
2019-01-25T23:31:43.026Z,53.17
2019-01-25T23:34:12.774Z,54.40
2019-01-25T23:36:42.574Z,56.80
2019-01-25T23:39:13.149Z,51.17
2019-01-25T23:41:42.830Z,51.60
2019-01-25T23:44:13.355Z,55.63
2019-01-25T23:46:42.938Z,66.83
2019-01-25T23:49:12.983Z,55.57
2019-01-25T23:51:42.549Z,60.57
2019-01-25T23:54:12.340Z,55.37
2019-01-25T23:56:41.917Z,52.97
2019-01-25T23:59:11.657Z,61.97
